Terminal Aerodrome Forecast
Issued by NWS

Home | Current Version | Previous Version | Text Only | Print | Product List | Glossary On
Versions: 1 2 3 4 5 6 7 8 9 10 11 12 13 14 15 16 17 18
000
FTUS44 KBMX 040800 AAA
TAFTCL
TAF AMD
KTCL 040827Z 0408/0506 19009KT P6SM BKN007 OVC015
      TEMPO 0408/0412 SCT003 SCT007 OVC012
     FM041300 20007KT 6SM BR OVC007
     FM041600 21010KT P6SM OVC025
     FM050200 28010KT 5SM -SHRA OVC015=

USA.gov is the U.S. government's official web portal to all federal, state and local government web resources and services.